sensor_id;sensor_type;location;lat;lon;timestamp;temperature;humidity
66086;DHT22;52868;49.758;9.586;2023-03-21T00:01:29;11.60;63.50
66086;DHT22;52868;49.758;9.586;2023-03-21T00:03:55;11.60;63.50
66086;DHT22;52868;49.758;9.586;2023-03-21T00:06:20;11.50;63.10
66086;DHT22;52868;49.758;9.586;2023-03-21T00:08:47;11.50;63.40
66086;DHT22;52868;49.758;9.586;2023-03-21T00:11:13;11.50;63.90
66086;DHT22;52868;49.758;9.586;2023-03-21T00:13:38;11.40;64.10
66086;DHT22;52868;49.758;9.586;2023-03-21T00:16:15;11.40;64.10
66086;DHT22;52868;49.758;9.586;2023-03-21T00:18:48;11.40;64.50
66086;DHT22;52868;49.758;9.586;2023-03-21T00:21:18;11.40;64.30
66086;DHT22;52868;49.758;9.586;2023-03-21T00:23:45;11.50;64.20
66086;DHT22;52868;49.758;9.586;2023-03-21T00:26:11;11.40;64.20
66086;DHT22;52868;49.758;9.586;2023-03-21T00:28:38;11.40;64.10
66086;DHT22;52868;49.758;9.586;2023-03-21T00:31:05;11.40;64.10
66086;DHT22;52868;49.758;9.586;2023-03-21T00:33:31;11.30;64.30
66086;DHT22;52868;49.758;9.586;2023-03-21T00:35:57;11.40;64.30
66086;DHT22;52868;49.758;9.586;2023-03-21T00:38:23;11.30;64.40
66086;DHT22;52868;49.758;9.586;2023-03-21T00:40:49;11.30;64.10
66086;DHT22;52868;49.758;9.586;2023-03-21T00:43:15;11.30;64.20
66086;DHT22;52868;49.758;9.586;2023-03-21T00:45:48;11.30;64.20
66086;DHT22;52868;49.758;9.586;2023-03-21T00:48:14;11.30;64.70
66086;DHT22;52868;49.758;9.586;2023-03-21T00:50:40;11.40;65.20
66086;DHT22;52868;49.758;9.586;2023-03-21T00:53:10;11.30;65.40
66086;DHT22;52868;49.758;9.586;2023-03-21T00:55:36;11.30;65.50
66086;DHT22;52868;49.758;9.586;2023-03-21T00:58:03;11.30;65.40
66086;DHT22;52868;49.758;9.586;2023-03-21T01:00:29;11.30;65.70
66086;DHT22;52868;49.758;9.586;2023-03-21T01:02:55;11.40;65.40
66086;DHT22;52868;49.758;9.586;2023-03-21T01:05:26;11.40;65.00
66086;DHT22;52868;49.758;9.586;2023-03-21T01:08:11;11.40;65.00
66086;DHT22;52868;49.758;9.586;2023-03-21T01:10:42;11.40;65.20
66086;DHT22;52868;49.758;9.586;2023-03-21T01:13:09;11.40;65.10
66086;DHT22;52868;49.758;9.586;2023-03-21T01:15:41;11.40;65.20
66086;DHT22;52868;49.758;9.586;2023-03-21T01:18:07;11.30;65.20
66086;DHT22;52868;49.758;9.586;2023-03-21T01:20:32;11.30;65.20
66086;DHT22;52868;49.758;9.586;2023-03-21T01:22:58;11.30;65.00
66086;DHT22;52868;49.758;9.586;2023-03-21T01:25:24;11.30;64.90
66086;DHT22;52868;49.758;9.586;2023-03-21T01:27:49;11.30;64.80
66086;DHT22;52868;49.758;9.586;2023-03-21T01:30:15;11.40;64.70
66086;DHT22;52868;49.758;9.586;2023-03-21T01:32:41;11.30;64.80
66086;DHT22;52868;49.758;9.586;2023-03-21T01:35:07;11.30;64.70
66086;DHT22;52868;49.758;9.586;2023-03-21T01:37:33;11.30;64.30
66086;DHT22;52868;49.758;9.586;2023-03-21T01:39:58;11.30;64.70
66086;DHT22;52868;49.758;9.586;2023-03-21T01:42:24;11.30;64.90
66086;DHT22;52868;49.758;9.586;2023-03-21T01:47:23;11.30;64.90
66086;DHT22;52868;49.758;9.586;2023-03-21T01:49:50;11.20;65.00
66086;DHT22;52868;49.758;9.586;2023-03-21T01:52:20;11.20;65.10
66086;DHT22;52868;49.758;9.586;2023-03-21T01:54:48;11.20;65.10
66086;DHT22;52868;49.758;9.586;2023-03-21T01:57:24;11.30;65.10
66086;DHT22;52868;49.758;9.586;2023-03-21T01:59:58;11.20;65.00
66086;DHT22;52868;49.758;9.586;2023-03-21T02:02:28;11.20;64.80
66086;DHT22;52868;49.758;9.586;2023-03-21T02:04:56;11.20;64.90
66086;DHT22;52868;49.758;9.586;2023-03-21T02:07:31;11.10;65.20
66086;DHT22;52868;49.758;9.586;2023-03-21T02:10:04;11.00;65.70
66086;DHT22;52868;49.758;9.586;2023-03-21T02:12:33;11.00;65.80
66086;DHT22;52868;49.758;9.586;2023-03-21T02:14:58;11.00;65.70
66086;DHT22;52868;49.758;9.586;2023-03-21T02:17:39;10.90;65.60
66086;DHT22;52868;49.758;9.586;2023-03-21T02:28:49;10.80;65.40
66086;DHT22;52868;49.758;9.586;2023-03-21T02:31:41;10.80;65.10
66086;DHT22;52868;49.758;9.586;2023-03-21T02:37:03;11.00;65.00
66086;DHT22;52868;49.758;9.586;2023-03-21T02:39:50;10.80;64.70
66086;DHT22;52868;49.758;9.586;2023-03-21T02:42:23;10.80;65.00
66086;DHT22;52868;49.758;9.586;2023-03-21T02:45:16;10.80;64.90
66086;DHT22;52868;49.758;9.586;2023-03-21T02:50:52;10.80;65.20
66086;DHT22;52868;49.758;9.586;2023-03-21T02:53:24;10.80;65.50
66086;DHT22;52868;49.758;9.586;2023-03-21T02:55:51;10.80;65.60
66086;DHT22;52868;49.758;9.586;2023-03-21T02:58:21;10.80;65.60
66086;DHT22;52868;49.758;9.586;2023-03-21T03:00:47;10.70;65.80
66086;DHT22;52868;49.758;9.586;2023-03-21T03:03:14;10.70;65.70
66086;DHT22;52868;49.758;9.586;2023-03-21T03:05:52;10.70;65.50
66086;DHT22;52868;49.758;9.586;2023-03-21T03:08:37;10.70;65.70
66086;DHT22;52868;49.758;9.586;2023-03-21T03:11:26;10.70;65.70
66086;DHT22;52868;49.758;9.586;2023-03-21T03:19:01;10.50;65.90
66086;DHT22;52868;49.758;9.586;2023-03-21T03:21:41;10.60;66.20
66086;DHT22;52868;49.758;9.586;2023-03-21T03:24:17;10.60;66.10
66086;DHT22;52868;49.758;9.586;2023-03-21T03:29:29;10.50;65.90
66086;DHT22;52868;49.758;9.586;2023-03-21T03:32:19;10.50;65.80
66086;DHT22;52868;49.758;9.586;2023-03-21T03:34:52;10.50;65.80
66086;DHT22;52868;49.758;9.586;2023-03-21T03:37:24;10.70;65.80
66086;DHT22;52868;49.758;9.586;2023-03-21T03:39:53;10.70;65.70
66086;DHT22;52868;49.758;9.586;2023-03-21T03:42:29;10.70;65.70
66086;DHT22;52868;49.758;9.586;2023-03-21T03:44:56;10.70;65.80
66086;DHT22;52868;49.758;9.586;2023-03-21T03:47:51;10.60;66.00
66086;DHT22;52868;49.758;9.586;2023-03-21T03:50:32;10.70;66.00
66086;DHT22;52868;49.758;9.586;2023-03-21T03:53:54;10.70;66.10
66086;DHT22;52868;49.758;9.586;2023-03-21T03:55:54;10.70;66.20
66086;DHT22;52868;49.758;9.586;2023-03-21T03:58:21;10.70;66.50
66086;DHT22;52868;49.758;9.586;2023-03-21T04:00:47;10.50;66.90
66086;DHT22;52868;49.758;9.586;2023-03-21T04:03:13;10.60;66.60
66086;DHT22;52868;49.758;9.586;2023-03-21T04:05:40;10.60;66.40
66086;DHT22;52868;49.758;9.586;2023-03-21T04:08:07;10.60;66.20
66086;DHT22;52868;49.758;9.586;2023-03-21T04:10:33;10.70;66.40
66086;DHT22;52868;49.758;9.586;2023-03-21T04:12:59;10.70;66.40
66086;DHT22;52868;49.758;9.586;2023-03-21T04:15:25;10.70;66.60
66086;DHT22;52868;49.758;9.586;2023-03-21T04:17:50;10.60;66.70
66086;DHT22;52868;49.758;9.586;2023-03-21T04:20:16;10.50;66.70
66086;DHT22;52868;49.758;9.586;2023-03-21T04:22:42;10.60;66.80
66086;DHT22;52868;49.758;9.586;2023-03-21T04:25:08;10.60;66.90
66086;DHT22;52868;49.758;9.586;2023-03-21T04:27:34;10.50;67.00
66086;DHT22;52868;49.758;9.586;2023-03-21T04:30:00;10.50;66.90
66086;DHT22;52868;49.758;9.586;2023-03-21T04:32:26;10.50;66.80
66086;DHT22;52868;49.758;9.586;2023-03-21T04:34:52;10.40;66.70
66086;DHT22;52868;49.758;9.586;2023-03-21T04:37:21;10.30;66.90
66086;DHT22;52868;49.758;9.586;2023-03-21T04:39:49;10.30;67.00
66086;DHT22;52868;49.758;9.586;2023-03-21T04:42:16;10.30;66.90
66086;DHT22;52868;49.758;9.586;2023-03-21T04:44:43;10.20;66.60
66086;DHT22;52868;49.758;9.586;2023-03-21T04:47:09;10.20;66.50
66086;DHT22;52868;49.758;9.586;2023-03-21T04:49:37;10.10;66.30
66086;DHT22;52868;49.758;9.586;2023-03-21T04:52:04;10.20;66.80
66086;DHT22;52868;49.758;9.586;2023-03-21T04:54:29;10.10;66.10
66086;DHT22;52868;49.758;9.586;2023-03-21T04:56:57;10.10;66.40
66086;DHT22;52868;49.758;9.586;2023-03-21T04:59:22;10.10;66.40
66086;DHT22;52868;49.758;9.586;2023-03-21T05:01:49;10.00;66.20
66086;DHT22;52868;49.758;9.586;2023-03-21T05:04:15;9.90;66.40
66086;DHT22;52868;49.758;9.586;2023-03-21T05:06:41;10.00;66.40
66086;DHT22;52868;49.758;9.586;2023-03-21T05:09:07;10.00;66.40
66086;DHT22;52868;49.758;9.586;2023-03-21T05:11:35;10.00;66.30
66086;DHT22;52868;49.758;9.586;2023-03-21T05:14:03;10.00;66.10
66086;DHT22;52868;49.758;9.586;2023-03-21T05:16:29;10.00;66.20
66086;DHT22;52868;49.758;9.586;2023-03-21T05:18:56;9.90;66.00
66086;DHT22;52868;49.758;9.586;2023-03-21T05:21:28;9.90;66.10
66086;DHT22;52868;49.758;9.586;2023-03-21T05:23:59;9.90;65.80
66086;DHT22;52868;49.758;9.586;2023-03-21T05:26:28;9.90;66.30
66086;DHT22;52868;49.758;9.586;2023-03-21T05:28:54;10.00;66.30
66086;DHT22;52868;49.758;9.586;2023-03-21T05:31:20;9.90;66.00
66086;DHT22;52868;49.758;9.586;2023-03-21T05:33:46;10.00;66.10
66086;DHT22;52868;49.758;9.586;2023-03-21T05:36:13;10.00;65.70
66086;DHT22;52868;49.758;9.586;2023-03-21T05:38:39;9.90;65.80
66086;DHT22;52868;49.758;9.586;2023-03-21T05:41:11;9.80;66.20
66086;DHT22;52868;49.758;9.586;2023-03-21T05:43:36;9.80;66.10
66086;DHT22;52868;49.758;9.586;2023-03-21T05:46:02;9.80;66.10
66086;DHT22;52868;49.758;9.586;2023-03-21T05:48:27;9.70;66.00
66086;DHT22;52868;49.758;9.586;2023-03-21T05:50:53;9.60;66.60
66086;DHT22;52868;49.758;9.586;2023-03-21T05:53:19;9.70;66.50
66086;DHT22;52868;49.758;9.586;2023-03-21T05:55:45;9.70;66.40
66086;DHT22;52868;49.758;9.586;2023-03-21T05:58:11;9.70;66.30
66086;DHT22;52868;49.758;9.586;2023-03-21T06:00:36;9.70;66.40
66086;DHT22;52868;49.758;9.586;2023-03-21T06:03:02;9.70;66.40
66086;DHT22;52868;49.758;9.586;2023-03-21T06:05:27;9.70;66.50
66086;DHT22;52868;49.758;9.586;2023-03-21T06:07:53;9.70;66.30
66086;DHT22;52868;49.758;9.586;2023-03-21T06:10:19;9.70;66.30
66086;DHT22;52868;49.758;9.586;2023-03-21T06:12:44;9.70;66.40
66086;DHT22;52868;49.758;9.586;2023-03-21T06:15:10;9.80;66.20
66086;DHT22;52868;49.758;9.586;2023-03-21T06:17:36;9.70;66.40
66086;DHT22;52868;49.758;9.586;2023-03-21T06:20:05;9.70;66.60
66086;DHT22;52868;49.758;9.586;2023-03-21T06:22:32;9.70;66.60
66086;DHT22;52868;49.758;9.586;2023-03-21T06:24:58;9.70;66.60
66086;DHT22;52868;49.758;9.586;2023-03-21T06:27:24;9.70;66.60
66086;DHT22;52868;49.758;9.586;2023-03-21T06:29:50;9.70;66.70
66086;DHT22;52868;49.758;9.586;2023-03-21T06:32:16;9.70;66.90
66086;DHT22;52868;49.758;9.586;2023-03-21T06:34:41;9.70;66.90
66086;DHT22;52868;49.758;9.586;2023-03-21T06:37:07;9.80;66.90
66086;DHT22;52868;49.758;9.586;2023-03-21T06:39:33;9.90;66.70
66086;DHT22;52868;49.758;9.586;2023-03-21T06:41:59;9.90;66.50
66086;DHT22;52868;49.758;9.586;2023-03-21T06:44:25;10.00;66.60
66086;DHT22;52868;49.758;9.586;2023-03-21T06:46:52;9.90;66.60
66086;DHT22;52868;49.758;9.586;2023-03-21T06:49:18;10.00;66.60
66086;DHT22;52868;49.758;9.586;2023-03-21T06:51:44;10.00;66.60
66086;DHT22;52868;49.758;9.586;2023-03-21T06:54:10;10.00;66.70
66086;DHT22;52868;49.758;9.586;2023-03-21T06:56:35;10.00;66.70
66086;DHT22;52868;49.758;9.586;2023-03-21T06:59:02;10.00;66.90
66086;DHT22;52868;49.758;9.586;2023-03-21T07:01:28;10.00;67.10
66086;DHT22;52868;49.758;9.586;2023-03-21T07:03:55;10.10;67.20
66086;DHT22;52868;49.758;9.586;2023-03-21T07:06:22;10.10;67.20
66086;DHT22;52868;49.758;9.586;2023-03-21T07:08:51;10.20;67.30
66086;DHT22;52868;49.758;9.586;2023-03-21T07:11:17;10.20;67.50
66086;DHT22;52868;49.758;9.586;2023-03-21T07:13:43;10.20;67.50
66086;DHT22;52868;49.758;9.586;2023-03-21T07:16:09;10.20;67.50
66086;DHT22;52868;49.758;9.586;2023-03-21T07:18:35;10.30;67.50
66086;DHT22;52868;49.758;9.586;2023-03-21T07:21:01;10.30;67.60
66086;DHT22;52868;49.758;9.586;2023-03-21T07:23:27;10.40;67.50
66086;DHT22;52868;49.758;9.586;2023-03-21T07:25:53;10.40;67.70
66086;DHT22;52868;49.758;9.586;2023-03-21T07:28:19;10.50;67.30
66086;DHT22;52868;49.758;9.586;2023-03-21T07:30:54;10.50;67.20
66086;DHT22;52868;49.758;9.586;2023-03-21T07:33:20;10.60;67.30
66086;DHT22;52868;49.758;9.586;2023-03-21T07:35:50;10.60;67.20
66086;DHT22;52868;49.758;9.586;2023-03-21T07:38:17;10.70;67.10
66086;DHT22;52868;49.758;9.586;2023-03-21T07:40:44;10.70;67.10
66086;DHT22;52868;49.758;9.586;2023-03-21T07:43:10;10.70;67.10
66086;DHT22;52868;49.758;9.586;2023-03-21T07:45:36;10.80;67.10
66086;DHT22;52868;49.758;9.586;2023-03-21T07:48:02;10.80;67.10
66086;DHT22;52868;49.758;9.586;2023-03-21T07:50:28;10.80;67.20
66086;DHT22;52868;49.758;9.586;2023-03-21T07:52:54;10.80;67.20
66086;DHT22;52868;49.758;9.586;2023-03-21T07:55:20;10.90;67.20
66086;DHT22;52868;49.758;9.586;2023-03-21T07:57:48;10.90;67.10
66086;DHT22;52868;49.758;9.586;2023-03-21T08:00:17;10.90;67.00
66086;DHT22;52868;49.758;9.586;2023-03-21T08:02:48;10.90;67.00
66086;DHT22;52868;49.758;9.586;2023-03-21T08:05:22;11.00;67.10
66086;DHT22;52868;49.758;9.586;2023-03-21T08:07:48;11.00;67.00
66086;DHT22;52868;49.758;9.586;2023-03-21T08:10:15;11.10;67.10
66086;DHT22;52868;49.758;9.586;2023-03-21T08:12:41;11.10;66.90
66086;DHT22;52868;49.758;9.586;2023-03-21T08:15:07;11.20;66.80
66086;DHT22;52868;49.758;9.586;2023-03-21T08:17:33;11.30;66.70
66086;DHT22;52868;49.758;9.586;2023-03-21T08:20:04;11.30;66.50
66086;DHT22;52868;49.758;9.586;2023-03-21T08:22:32;11.40;66.30
66086;DHT22;52868;49.758;9.586;2023-03-21T08:24:58;11.40;66.20
66086;DHT22;52868;49.758;9.586;2023-03-21T08:27:24;11.60;66.10
66086;DHT22;52868;49.758;9.586;2023-03-21T08:29:50;11.70;65.80
66086;DHT22;52868;49.758;9.586;2023-03-21T08:32:17;11.60;66.00
66086;DHT22;52868;49.758;9.586;2023-03-21T08:34:43;11.70;65.80
66086;DHT22;52868;49.758;9.586;2023-03-21T08:37:09;11.80;65.60
66086;DHT22;52868;49.758;9.586;2023-03-21T08:39:34;11.80;65.50
66086;DHT22;52868;49.758;9.586;2023-03-21T08:42:00;11.80;65.10
66086;DHT22;52868;49.758;9.586;2023-03-21T08:44:26;11.90;65.10
66086;DHT22;52868;49.758;9.586;2023-03-21T08:46:51;11.90;65.10
66086;DHT22;52868;49.758;9.586;2023-03-21T08:49:17;12.00;65.10
66086;DHT22;52868;49.758;9.586;2023-03-21T08:51:43;12.10;65.20
66086;DHT22;52868;49.758;9.586;2023-03-21T08:54:19;12.20;65.00
66086;DHT22;52868;49.758;9.586;2023-03-21T08:56:46;12.20;64.90
66086;DHT22;52868;49.758;9.586;2023-03-21T08:59:11;12.30;65.00
66086;DHT22;52868;49.758;9.586;2023-03-21T09:01:37;12.30;64.90
66086;DHT22;52868;49.758;9.586;2023-03-21T09:04:03;12.40;64.70
66086;DHT22;52868;49.758;9.586;2023-03-21T09:06:32;12.40;64.40
66086;DHT22;52868;49.758;9.586;2023-03-21T09:08:58;12.50;64.40
66086;DHT22;52868;49.758;9.586;2023-03-21T09:11:24;12.60;64.50
66086;DHT22;52868;49.758;9.586;2023-03-21T09:13:49;12.70;64.50
66086;DHT22;52868;49.758;9.586;2023-03-21T09:16:15;12.70;64.00
66086;DHT22;52868;49.758;9.586;2023-03-21T09:18:41;12.80;63.60
66086;DHT22;52868;49.758;9.586;2023-03-21T09:21:12;12.80;63.70
66086;DHT22;52868;49.758;9.586;2023-03-21T09:23:39;12.80;63.10
66086;DHT22;52868;49.758;9.586;2023-03-21T09:26:07;12.90;63.30
66086;DHT22;52868;49.758;9.586;2023-03-21T09:28:34;13.00;63.40
66086;DHT22;52868;49.758;9.586;2023-03-21T09:31:00;13.00;63.00
66086;DHT22;52868;49.758;9.586;2023-03-21T09:33:27;13.10;63.40
66086;DHT22;52868;49.758;9.586;2023-03-21T09:35:54;13.20;63.20
66086;DHT22;52868;49.758;9.586;2023-03-21T09:38:20;13.30;63.30
66086;DHT22;52868;49.758;9.586;2023-03-21T09:41:02;13.20;63.20
66086;DHT22;52868;49.758;9.586;2023-03-21T09:43:39;13.20;63.10
66086;DHT22;52868;49.758;9.586;2023-03-21T09:46:25;13.20;63.20
66086;DHT22;52868;49.758;9.586;2023-03-21T09:49:00;13.10;63.40
66086;DHT22;52868;49.758;9.586;2023-03-21T09:51:34;13.10;63.20
66086;DHT22;52868;49.758;9.586;2023-03-21T09:54:04;13.00;62.80
66086;DHT22;52868;49.758;9.586;2023-03-21T09:56:32;13.10;63.00
66086;DHT22;52868;49.758;9.586;2023-03-21T09:58:59;13.10;62.90
66086;DHT22;52868;49.758;9.586;2023-03-21T10:01:28;13.20;62.90
66086;DHT22;52868;49.758;9.586;2023-03-21T10:04:04;13.20;62.50
66086;DHT22;52868;49.758;9.586;2023-03-21T10:06:31;13.20;61.90
66086;DHT22;52868;49.758;9.586;2023-03-21T10:09:02;13.20;62.50
66086;DHT22;52868;49.758;9.586;2023-03-21T10:11:43;13.20;62.90
66086;DHT22;52868;49.758;9.586;2023-03-21T10:14:29;13.20;62.90
66086;DHT22;52868;49.758;9.586;2023-03-21T10:17:16;13.20;63.00
66086;DHT22;52868;49.758;9.586;2023-03-21T10:19:48;13.20;63.10
66086;DHT22;52868;49.758;9.586;2023-03-21T10:22:19;13.20;62.40
66086;DHT22;52868;49.758;9.586;2023-03-21T10:24:45;13.20;62.50
66086;DHT22;52868;49.758;9.586;2023-03-21T10:27:11;13.20;62.70
66086;DHT22;52868;49.758;9.586;2023-03-21T10:29:43;13.20;62.70
66086;DHT22;52868;49.758;9.586;2023-03-21T10:32:11;13.20;62.70
66086;DHT22;52868;49.758;9.586;2023-03-21T10:34:57;13.20;62.50
66086;DHT22;52868;49.758;9.586;2023-03-21T10:37:23;13.30;63.00
66086;DHT22;52868;49.758;9.586;2023-03-21T10:39:52;13.30;62.80
66086;DHT22;52868;49.758;9.586;2023-03-21T10:42:24;13.30;62.30
66086;DHT22;52868;49.758;9.586;2023-03-21T10:44:54;13.30;62.80
66086;DHT22;52868;49.758;9.586;2023-03-21T10:47:31;13.30;62.00
66086;DHT22;52868;49.758;9.586;2023-03-21T10:50:03;13.40;61.10
66086;DHT22;52868;49.758;9.586;2023-03-21T10:52:31;13.40;61.70
66086;DHT22;52868;49.758;9.586;2023-03-21T10:55:22;13.50;61.30
66086;DHT22;52868;49.758;9.586;2023-03-21T10:57:56;13.50;61.50
66086;DHT22;52868;49.758;9.586;2023-03-21T11:00:28;13.50;61.40
66086;DHT22;52868;49.758;9.586;2023-03-21T11:02:54;13.50;61.30
66086;DHT22;52868;49.758;9.586;2023-03-21T11:05:32;13.50;60.60
66086;DHT22;52868;49.758;9.586;2023-03-21T11:08:01;13.50;60.70
66086;DHT22;52868;49.758;9.586;2023-03-21T11:10:33;13.40;61.30
66086;DHT22;52868;49.758;9.586;2023-03-21T11:13:04;13.50;61.40
66086;DHT22;52868;49.758;9.586;2023-03-21T11:15:40;13.60;60.00
66086;DHT22;52868;49.758;9.586;2023-03-21T11:18:16;13.60;60.30
66086;DHT22;52868;49.758;9.586;2023-03-21T11:20:55;13.60;61.00
66086;DHT22;52868;49.758;9.586;2023-03-21T11:23:25;13.60;60.70
66086;DHT22;52868;49.758;9.586;2023-03-21T11:25:51;13.60;60.70
66086;DHT22;52868;49.758;9.586;2023-03-21T11:28:22;13.60;60.50
66086;DHT22;52868;49.758;9.586;2023-03-21T11:30:57;13.70;60.80
66086;DHT22;52868;49.758;9.586;2023-03-21T11:33:30;13.70;60.20
66086;DHT22;52868;49.758;9.586;2023-03-21T11:36:06;13.70;59.80
66086;DHT22;52868;49.758;9.586;2023-03-21T11:38:36;13.70;60.30
66086;DHT22;52868;49.758;9.586;2023-03-21T11:41:03;13.70;60.10
66086;DHT22;52868;49.758;9.586;2023-03-21T11:43:35;13.70;60.40
66086;DHT22;52868;49.758;9.586;2023-03-21T11:48:37;13.80;60.40
66086;DHT22;52868;49.758;9.586;2023-03-21T11:52:28;13.80;60.30
66086;DHT22;52868;49.758;9.586;2023-03-21T11:57:06;13.80;60.10
66086;DHT22;52868;49.758;9.586;2023-03-21T11:59:45;13.80;60.00
66086;DHT22;52868;49.758;9.586;2023-03-21T12:05:17;13.90;60.40
66086;DHT22;52868;49.758;9.586;2023-03-21T12:13:30;13.90;60.00
66086;DHT22;52868;49.758;9.586;2023-03-21T12:16:11;13.80;59.90
66086;DHT22;52868;49.758;9.586;2023-03-21T12:21:56;13.90;60.20
66086;DHT22;52868;49.758;9.586;2023-03-21T12:24:25;13.90;60.00
66086;DHT22;52868;49.758;9.586;2023-03-21T12:35:48;14.00;59.60
66086;DHT22;52868;49.758;9.586;2023-03-21T12:38:38;14.00;59.50
66086;DHT22;52868;49.758;9.586;2023-03-21T12:41:23;14.00;59.90
66086;DHT22;52868;49.758;9.586;2023-03-21T12:44:12;14.00;59.30
66086;DHT22;52868;49.758;9.586;2023-03-21T12:46:56;14.00;59.50
66086;DHT22;52868;49.758;9.586;2023-03-21T12:49:37;14.00;59.50
66086;DHT22;52868;49.758;9.586;2023-03-21T12:52:09;14.00;59.70
66086;DHT22;52868;49.758;9.586;2023-03-21T12:54:47;14.00;59.60
66086;DHT22;52868;49.758;9.586;2023-03-21T12:57:16;14.00;59.80
66086;DHT22;52868;49.758;9.586;2023-03-21T13:00:13;14.00;59.80
66086;DHT22;52868;49.758;9.586;2023-03-21T13:02:43;14.00;60.00
66086;DHT22;52868;49.758;9.586;2023-03-21T13:05:21;14.00;60.40
66086;DHT22;52868;49.758;9.586;2023-03-21T13:07:56;14.00;60.20
66086;DHT22;52868;49.758;9.586;2023-03-21T13:10:23;14.00;60.20
66086;DHT22;52868;49.758;9.586;2023-03-21T13:18:00;14.00;60.80
66086;DHT22;52868;49.758;9.586;2023-03-21T13:20:37;14.00;61.00
66086;DHT22;52868;49.758;9.586;2023-03-21T13:23:07;14.00;60.90
66086;DHT22;52868;49.758;9.586;2023-03-21T13:25:42;14.00;61.20
66086;DHT22;52868;49.758;9.586;2023-03-21T13:28:27;14.00;61.30
66086;DHT22;52868;49.758;9.586;2023-03-21T13:31:34;14.00;61.60
66086;DHT22;52868;49.758;9.586;2023-03-21T13:34:02;14.00;61.50
66086;DHT22;52868;49.758;9.586;2023-03-21T13:36:34;14.00;61.80
66086;DHT22;52868;49.758;9.586;2023-03-21T13:39:04;14.00;62.30
66086;DHT22;52868;49.758;9.586;2023-03-21T13:41:38;13.90;62.50
66086;DHT22;52868;49.758;9.586;2023-03-21T13:44:15;14.00;62.70
66086;DHT22;52868;49.758;9.586;2023-03-21T13:47:00;13.90;63.00
66086;DHT22;52868;49.758;9.586;2023-03-21T13:49:36;13.90;63.20
66086;DHT22;52868;49.758;9.586;2023-03-21T13:52:26;13.90;63.30
66086;DHT22;52868;49.758;9.586;2023-03-21T13:54:54;13.80;63.50
66086;DHT22;52868;49.758;9.586;2023-03-21T13:57:40;13.80;64.00
66086;DHT22;52868;49.758;9.586;2023-03-21T14:03:09;13.80;64.30
66086;DHT22;52868;49.758;9.586;2023-03-21T14:05:38;13.80;64.60
66086;DHT22;52868;49.758;9.586;2023-03-21T14:08:09;13.70;64.70
66086;DHT22;52868;49.758;9.586;2023-03-21T14:10:43;13.70;64.90
66086;DHT22;52868;49.758;9.586;2023-03-21T14:13:14;13.70;65.30
66086;DHT22;52868;49.758;9.586;2023-03-21T14:15:50;13.70;65.40
66086;DHT22;52868;49.758;9.586;2023-03-21T14:18:20;13.70;65.80
66086;DHT22;52868;49.758;9.586;2023-03-21T14:20:52;13.70;65.80
66086;DHT22;52868;49.758;9.586;2023-03-21T14:23:18;13.70;65.80
66086;DHT22;52868;49.758;9.586;2023-03-21T14:25:45;13.70;66.40
66086;DHT22;52868;49.758;9.586;2023-03-21T14:28:24;13.60;66.30
66086;DHT22;52868;49.758;9.586;2023-03-21T14:30:55;13.70;66.20
66086;DHT22;52868;49.758;9.586;2023-03-21T14:33:35;13.60;66.50
66086;DHT22;52868;49.758;9.586;2023-03-21T14:36:14;13.60;66.80
66086;DHT22;52868;49.758;9.586;2023-03-21T14:38:40;13.60;66.60
66086;DHT22;52868;49.758;9.586;2023-03-21T14:41:20;13.60;66.50
66086;DHT22;52868;49.758;9.586;2023-03-21T14:44:07;13.50;66.40
66086;DHT22;52868;49.758;9.586;2023-03-21T14:46:35;13.50;66.40
66086;DHT22;52868;49.758;9.586;2023-03-21T14:49:18;13.50;66.30
66086;DHT22;52868;49.758;9.586;2023-03-21T14:51:44;13.50;66.30
66086;DHT22;52868;49.758;9.586;2023-03-21T14:54:14;13.50;66.50
66086;DHT22;52868;49.758;9.586;2023-03-21T14:56:45;13.50;66.40
66086;DHT22;52868;49.758;9.586;2023-03-21T14:59:14;13.50;66.60
66086;DHT22;52868;49.758;9.586;2023-03-21T15:01:41;13.50;66.40
66086;DHT22;52868;49.758;9.586;2023-03-21T15:04:10;13.50;66.40
66086;DHT22;52868;49.758;9.586;2023-03-21T15:07:00;13.50;66.40
66086;DHT22;52868;49.758;9.586;2023-03-21T15:09:31;13.50;66.30
66086;DHT22;52868;49.758;9.586;2023-03-21T15:11:59;13.50;66.30
66086;DHT22;52868;49.758;9.586;2023-03-21T15:14:31;13.50;66.60
66086;DHT22;52868;49.758;9.586;2023-03-21T15:16:59;13.40;66.60
66086;DHT22;52868;49.758;9.586;2023-03-21T15:19:31;13.40;66.80
66086;DHT22;52868;49.758;9.586;2023-03-21T15:22:13;13.40;67.10
66086;DHT22;52868;49.758;9.586;2023-03-21T15:24:42;13.40;67.20
66086;DHT22;52868;49.758;9.586;2023-03-21T15:27:15;13.30;67.10
66086;DHT22;52868;49.758;9.586;2023-03-21T15:29:42;13.30;66.90
66086;DHT22;52868;49.758;9.586;2023-03-21T15:32:20;13.40;66.90
66086;DHT22;52868;49.758;9.586;2023-03-21T15:34:47;13.30;67.20
66086;DHT22;52868;49.758;9.586;2023-03-21T15:37:25;13.30;67.50
66086;DHT22;52868;49.758;9.586;2023-03-21T15:39:51;13.30;68.10
66086;DHT22;52868;49.758;9.586;2023-03-21T15:42:37;13.30;67.60
66086;DHT22;52868;49.758;9.586;2023-03-21T15:45:18;13.30;67.80
66086;DHT22;52868;49.758;9.586;2023-03-21T15:50:34;13.30;67.90
66086;DHT22;52868;49.758;9.586;2023-03-21T15:53:13;13.30;68.10
66086;DHT22;52868;49.758;9.586;2023-03-21T15:55:46;13.30;68.30
66086;DHT22;52868;49.758;9.586;2023-03-21T15:58:19;13.30;68.00
66086;DHT22;52868;49.758;9.586;2023-03-21T16:00:54;13.30;67.90
66086;DHT22;52868;49.758;9.586;2023-03-21T16:03:33;13.30;68.80
66086;DHT22;52868;49.758;9.586;2023-03-21T16:11:26;13.20;69.60
66086;DHT22;52868;49.758;9.586;2023-03-21T16:13:54;13.20;71.90
66086;DHT22;52868;49.758;9.586;2023-03-21T16:16:27;13.10;72.70
66086;DHT22;52868;49.758;9.586;2023-03-21T16:18:55;13.10;72.80
66086;DHT22;52868;49.758;9.586;2023-03-21T16:21:24;13.10;72.70
66086;DHT22;52868;49.758;9.586;2023-03-21T16:23:50;13.10;71.80
66086;DHT22;52868;49.758;9.586;2023-03-21T16:26:19;13.10;70.80
66086;DHT22;52868;49.758;9.586;2023-03-21T16:28:45;13.10;72.10
66086;DHT22;52868;49.758;9.586;2023-03-21T16:31:17;13.10;73.60
66086;DHT22;52868;49.758;9.586;2023-03-21T16:33:43;13.00;74.00
66086;DHT22;52868;49.758;9.586;2023-03-21T16:36:15;13.00;74.50
66086;DHT22;52868;49.758;9.586;2023-03-21T16:38:42;13.00;73.60
66086;DHT22;52868;49.758;9.586;2023-03-21T16:41:12;13.00;72.90
66086;DHT22;52868;49.758;9.586;2023-03-21T16:43:38;13.10;73.30
66086;DHT22;52868;49.758;9.586;2023-03-21T16:46:15;13.00;72.50
66086;DHT22;52868;49.758;9.586;2023-03-21T16:48:43;13.00;72.40
66086;DHT22;52868;49.758;9.586;2023-03-21T16:51:13;13.00;73.70
66086;DHT22;52868;49.758;9.586;2023-03-21T16:53:39;12.90;74.10
66086;DHT22;52868;49.758;9.586;2023-03-21T16:56:07;12.90;73.50
66086;DHT22;52868;49.758;9.586;2023-03-21T16:58:33;12.90;73.80
66086;DHT22;52868;49.758;9.586;2023-03-21T17:00:59;12.90;74.20